Terminal Aerodrome Forecast
Issued by NWS

Home | Current Version | Previous Version | Text Only | Print | Product List | Glossary On
Versions: 1 2 3 4 5 6 7 8 9 10 11 12 13 14
000
FTUS43 KICT 301900 AAA
TAFHUT
TAF AMD
KHUT 301925Z 3019/3118 05007KT 5SM -RA BR SCT008 OVC035
      TEMPO 3019/3021 BKN007 OVC035
     FM302100 07007KT P6SM VCSH SCT015 OVC050
     FM310000 VRB05KT P6SM SCT020 BKN050
     FM310600 VRB03KT 4SM BR SCT100=

USA.gov is the U.S. government's official web portal to all federal, state and local government web resources and services.